createdAt,value
2023-03-17T00:02:18.462Z,29.03
2023-03-17T00:04:44.994Z,29.23
2023-03-17T00:07:11.467Z,29.45
2023-03-17T00:09:38.001Z,29.39
2023-03-17T00:12:04.395Z,29.25
2023-03-17T00:14:30.746Z,29.28
2023-03-17T00:16:57.236Z,29.37
2023-03-17T00:19:23.698Z,29.18
2023-03-17T00:21:50.101Z,29.23
2023-03-17T00:24:16.495Z,29.42
2023-03-17T00:26:42.818Z,29.38
2023-03-17T00:29:09.185Z,29.35
2023-03-17T00:31:35.705Z,29.29
2023-03-17T00:34:02.128Z,29.24
2023-03-17T00:36:28.656Z,29.18
2023-03-17T00:38:55.223Z,29.46
2023-03-17T00:41:21.629Z,29.29
2023-03-17T00:43:48.220Z,29.64
2023-03-17T00:46:14.762Z,29.61
2023-03-17T00:48:41.296Z,29.45
2023-03-17T00:51:07.738Z,29.37
2023-03-17T00:53:34.252Z,29.46
2023-03-17T00:56:00.844Z,29.58
2023-03-17T00:58:27.398Z,29.62
2023-03-17T01:00:53.858Z,29.64
2023-03-17T01:03:20.199Z,29.60
2023-03-17T01:05:48.182Z,29.70
2023-03-17T01:08:14.639Z,29.70
2023-03-17T01:10:41.158Z,29.64
2023-03-17T01:13:07.635Z,29.70
2023-03-17T01:15:34.149Z,29.77
2023-03-17T01:18:00.778Z,29.96
2023-03-17T01:20:27.339Z,29.86
2023-03-17T01:22:53.953Z,29.99
2023-03-17T01:25:20.368Z,29.88
2023-03-17T01:27:46.844Z,30.05
2023-03-17T01:30:13.306Z,30.20
2023-03-17T01:32:39.684Z,30.36
2023-03-17T01:35:06.111Z,30.10
2023-03-17T01:37:32.664Z,30.05
2023-03-17T01:39:58.991Z,30.12
2023-03-17T01:42:25.371Z,30.22
2023-03-17T01:44:51.903Z,30.13
2023-03-17T01:47:18.304Z,30.16
2023-03-17T01:49:44.788Z,30.48
2023-03-17T01:52:11.344Z,30.46
2023-03-17T01:54:37.742Z,30.27
2023-03-17T01:57:04.680Z,30.37
2023-03-17T01:59:31.114Z,30.42
2023-03-17T02:01:57.486Z,30.34
2023-03-17T02:04:23.906Z,30.50
2023-03-17T02:06:57.885Z,30.51
2023-03-17T02:09:25.115Z,30.60
2023-03-17T02:11:51.565Z,30.52
2023-03-17T02:14:17.980Z,30.79
2023-03-17T02:16:44.450Z,30.71
2023-03-17T02:19:10.931Z,30.94
2023-03-17T02:21:37.335Z,30.79
2023-03-17T02:24:03.753Z,30.82
2023-03-17T02:26:30.258Z,30.71
2023-03-17T02:28:56.601Z,30.57
2023-03-17T02:31:23.370Z,30.93
2023-03-17T02:33:51.550Z,30.73
2023-03-17T02:36:17.905Z,30.66
2023-03-17T02:38:46.242Z,30.83
2023-03-17T02:41:12.704Z,30.71
2023-03-17T02:43:39.157Z,31.22
2023-03-17T02:46:05.767Z,30.71
2023-03-17T02:48:32.352Z,31.15
2023-03-17T02:50:58.970Z,31.36
2023-03-17T02:53:25.472Z,30.69
2023-03-17T02:55:51.841Z,30.95
2023-03-17T02:58:18.197Z,30.90
2023-03-17T03:00:44.530Z,31.04
2023-03-17T03:03:10.910Z,30.60
2023-03-17T03:05:37.312Z,30.86
2023-03-17T03:08:03.710Z,31.19
2023-03-17T03:10:30.316Z,31.02
2023-03-17T03:12:56.870Z,30.79
2023-03-17T03:15:23.305Z,30.42
2023-03-17T03:17:49.818Z,30.19
2023-03-17T03:20:16.230Z,30.04
2023-03-17T03:22:42.662Z,29.88
2023-03-17T03:25:09.062Z,29.68
2023-03-17T03:27:35.434Z,29.58
2023-03-17T03:30:01.765Z,29.46
2023-03-17T03:32:28.180Z,29.36
2023-03-17T03:34:54.672Z,29.07
2023-03-17T03:37:21.103Z,28.85
2023-03-17T03:39:47.597Z,28.97
2023-03-17T03:42:13.986Z,28.69
2023-03-17T03:44:40.482Z,28.42
2023-03-17T03:47:06.920Z,28.33
2023-03-17T03:49:33.282Z,28.47
2023-03-17T03:51:59.811Z,28.44
2023-03-17T03:54:26.393Z,28.39
2023-03-17T03:56:52.761Z,28.25
2023-03-17T03:59:19.222Z,28.04
2023-03-17T04:01:45.709Z,27.76
2023-03-17T04:04:12.165Z,27.83
2023-03-17T04:06:38.668Z,27.77
2023-03-17T04:09:05.205Z,27.78
2023-03-17T04:11:31.602Z,27.40
2023-03-17T04:13:58.203Z,27.84
2023-03-17T04:16:24.816Z,27.72
2023-03-17T04:18:51.387Z,27.46
2023-03-17T04:21:17.766Z,27.12
2023-03-17T04:23:44.145Z,27.32
2023-03-17T04:26:10.611Z,27.19
2023-03-17T04:28:37.003Z,26.86
2023-03-17T04:31:03.382Z,26.83
2023-03-17T04:33:29.786Z,26.96
2023-03-17T04:35:56.305Z,26.81
2023-03-17T04:38:22.878Z,26.55
2023-03-17T04:40:49.337Z,26.71
2023-03-17T04:43:15.761Z,26.59
2023-03-17T04:45:42.293Z,26.51
2023-03-17T04:48:08.705Z,26.42
2023-03-17T04:50:35.136Z,26.68
2023-03-17T04:53:01.895Z,26.84
2023-03-17T04:55:28.347Z,27.07
2023-03-17T04:57:54.775Z,26.70
2023-03-17T05:00:21.320Z,27.03
2023-03-17T05:02:47.762Z,27.01
2023-03-17T05:05:14.154Z,27.04
2023-03-17T05:07:40.618Z,26.79
2023-03-17T05:10:07.091Z,26.50
2023-03-17T05:12:33.581Z,26.65
2023-03-17T05:15:00.151Z,26.21
2023-03-17T05:17:26.616Z,26.35
2023-03-17T05:19:53.104Z,26.57
2023-03-17T05:22:19.655Z,26.55
2023-03-17T05:24:46.111Z,26.35
2023-03-17T05:27:12.560Z,26.47
2023-03-17T05:29:39.139Z,26.88
2023-03-17T05:32:05.632Z,27.19
2023-03-17T05:34:32.155Z,27.48
2023-03-17T05:36:58.775Z,27.32
2023-03-17T05:39:25.207Z,27.25
2023-03-17T05:41:51.619Z,27.40
2023-03-17T05:44:18.091Z,27.71
2023-03-17T05:46:44.535Z,27.84
2023-03-17T05:49:11.021Z,27.80
2023-03-17T05:51:37.601Z,27.75
2023-03-17T05:54:03.970Z,27.78
2023-03-17T05:56:30.384Z,28.31
2023-03-17T05:58:57.001Z,28.07
2023-03-17T06:01:23.469Z,27.52
2023-03-17T06:03:50.129Z,27.49
2023-03-17T06:06:16.757Z,27.08
2023-03-17T06:08:43.225Z,27.23
2023-03-17T06:11:09.694Z,27.33
2023-03-17T06:13:36.292Z,27.87
2023-03-17T06:16:02.833Z,27.59
2023-03-17T06:18:29.293Z,28.10
2023-03-17T06:20:55.853Z,27.48
2023-03-17T06:23:22.339Z,27.33
2023-03-17T06:25:48.796Z,27.05
2023-03-17T06:28:15.275Z,26.83
2023-03-17T06:30:41.663Z,26.85
2023-03-17T06:33:08.272Z,26.35
2023-03-17T06:35:35.143Z,26.35
2023-03-17T06:38:01.766Z,25.95
2023-03-17T06:40:28.155Z,25.91
2023-03-17T06:42:54.709Z,25.82
2023-03-17T06:45:21.094Z,25.67
2023-03-17T06:47:47.461Z,25.40
2023-03-17T06:50:13.950Z,25.46
2023-03-17T06:52:40.285Z,25.49
2023-03-17T06:55:06.681Z,25.49
2023-03-17T06:57:33.153Z,25.59
2023-03-17T06:59:59.546Z,25.45
2023-03-17T07:02:25.939Z,25.22
2023-03-17T07:04:52.409Z,25.05
2023-03-17T07:07:18.914Z,24.91
2023-03-17T07:09:45.318Z,24.73
2023-03-17T07:12:11.811Z,24.63
2023-03-17T07:14:38.179Z,24.22
2023-03-17T07:17:04.557Z,24.31
2023-03-17T07:19:30.965Z,23.93
2023-03-17T07:21:57.492Z,23.02
2023-03-17T07:24:23.882Z,23.46
2023-03-17T07:26:50.345Z,23.22
2023-03-17T07:29:16.792Z,23.17
2023-03-17T07:31:43.226Z,22.97
2023-03-17T07:34:09.666Z,22.82
2023-03-17T07:36:36.084Z,22.70
2023-03-17T07:39:02.502Z,22.54
2023-03-17T07:41:28.940Z,22.62
2023-03-17T07:43:55.382Z,21.99
2023-03-17T07:46:21.783Z,21.84
2023-03-17T07:48:48.213Z,21.97
2023-03-17T07:51:14.605Z,21.70
2023-03-17T07:53:41.028Z,21.37
2023-03-17T07:56:07.466Z,21.48
2023-03-17T07:58:33.820Z,17.38
2023-03-17T08:01:00.203Z,19.83
2023-03-17T08:03:26.708Z,20.96
2023-03-17T08:05:53.126Z,20.91
2023-03-17T08:08:19.536Z,20.96
2023-03-17T08:10:45.987Z,21.39
2023-03-17T08:13:12.453Z,21.46
2023-03-17T08:15:38.852Z,21.74
2023-03-17T08:18:05.281Z,19.80
2023-03-17T08:20:31.964Z,20.37
2023-03-17T08:22:58.491Z,20.69
2023-03-17T08:25:24.944Z,20.94
2023-03-17T08:27:51.321Z,21.11
2023-03-17T08:30:17.716Z,21.27
2023-03-17T08:32:44.196Z,21.30
2023-03-17T08:35:10.568Z,21.43
2023-03-17T08:37:36.935Z,21.40
2023-03-17T08:40:03.339Z,21.62
2023-03-17T08:42:29.709Z,20.79
2023-03-17T08:44:56.076Z,21.76
2023-03-17T08:47:22.567Z,22.11
2023-03-17T08:49:48.970Z,22.21
2023-03-17T08:52:15.361Z,22.22
2023-03-17T08:54:41.822Z,21.85
2023-03-17T08:57:08.245Z,22.04
2023-03-17T08:59:34.659Z,21.67
2023-03-17T09:02:01.058Z,21.67
2023-03-17T09:04:27.420Z,21.60
2023-03-17T09:07:03.370Z,22.12
2023-03-17T09:09:30.013Z,22.24
2023-03-17T09:11:56.408Z,22.72
2023-03-17T09:14:22.773Z,23.12
2023-03-17T09:16:49.322Z,21.66
2023-03-17T09:19:15.683Z,22.28
2023-03-17T09:21:42.069Z,22.39
2023-03-17T09:24:08.498Z,22.64
2023-03-17T09:26:34.852Z,22.58
2023-03-17T09:29:03.659Z,20.80
2023-03-17T09:31:30.228Z,21.33
2023-03-17T09:33:56.602Z,21.30
2023-03-17T09:36:23.067Z,21.44
2023-03-17T09:38:49.477Z,21.42
2023-03-17T09:41:15.861Z,21.54
2023-03-17T09:43:42.325Z,21.37
2023-03-17T09:46:08.852Z,21.28
2023-03-17T09:48:35.231Z,21.10
2023-03-17T09:51:01.631Z,21.04
2023-03-17T09:53:28.137Z,21.13
2023-03-17T09:55:54.508Z,21.19
2023-03-17T09:58:20.919Z,19.04
2023-03-17T10:00:47.346Z,19.30
2023-03-17T10:03:13.729Z,19.41
2023-03-17T10:05:40.113Z,19.21
2023-03-17T10:08:19.026Z,19.42
2023-03-17T10:10:49.385Z,19.57
2023-03-17T10:13:15.835Z,19.71
2023-03-17T10:15:42.256Z,19.77
2023-03-17T10:18:08.621Z,19.74
2023-03-17T10:20:35.105Z,19.50
2023-03-17T10:23:01.546Z,19.80
2023-03-17T10:25:27.921Z,19.90
2023-03-17T10:27:54.341Z,19.78
2023-03-17T10:30:20.765Z,20.09
2023-03-17T10:32:47.204Z,20.14
2023-03-17T10:35:13.726Z,20.00
2023-03-17T10:37:42.533Z,18.43
2023-03-17T10:40:10.160Z,19.15
2023-03-17T10:42:36.602Z,19.24
2023-03-17T10:45:02.981Z,19.84
2023-03-17T10:47:29.395Z,19.88
2023-03-17T10:49:55.874Z,19.76
2023-03-17T10:52:22.289Z,19.58
2023-03-17T10:54:48.678Z,19.77
2023-03-17T10:57:15.154Z,20.08
2023-03-17T10:59:43.398Z,20.14
2023-03-17T11:02:10.661Z,20.64
2023-03-17T11:04:37.111Z,20.52
2023-03-17T11:07:03.476Z,20.09
2023-03-17T11:09:29.908Z,20.27
2023-03-17T11:11:56.312Z,20.11
2023-03-17T11:14:22.670Z,19.55
2023-03-17T11:16:49.111Z,19.04
2023-03-17T11:19:15.564Z,19.31
2023-03-17T11:21:41.940Z,18.68
2023-03-17T11:24:08.314Z,19.35
2023-03-17T11:26:34.791Z,19.72
2023-03-17T11:29:01.164Z,19.83
2023-03-17T11:31:27.602Z,19.80
2023-03-17T11:33:54.119Z,19.48
2023-03-17T11:36:20.551Z,19.78
2023-03-17T11:38:46.930Z,19.91
2023-03-17T11:41:13.345Z,19.88
2023-03-17T11:43:39.743Z,20.17
2023-03-17T11:46:06.146Z,19.75
2023-03-17T11:48:32.569Z,19.80
2023-03-17T11:50:58.968Z,19.68
2023-03-17T11:53:25.334Z,17.08
2023-03-17T11:55:51.810Z,17.53
2023-03-17T11:58:18.197Z,17.90
2023-03-17T12:00:44.589Z,17.57
2023-03-17T12:03:11.045Z,17.58
2023-03-17T12:05:37.444Z,17.66
2023-03-17T12:08:03.829Z,17.83
2023-03-17T12:10:30.537Z,18.11
2023-03-17T12:12:57.058Z,18.19
2023-03-17T12:15:23.453Z,18.15
2023-03-17T12:17:49.836Z,18.29
2023-03-17T12:20:16.205Z,18.00
2023-03-17T12:22:42.586Z,18.37
2023-03-17T12:25:08.988Z,18.25
2023-03-17T12:27:35.377Z,18.13
2023-03-17T12:30:01.766Z,16.87
2023-03-17T12:32:28.213Z,16.79
2023-03-17T12:34:56.964Z,17.50
2023-03-17T12:37:23.609Z,17.81
2023-03-17T12:39:50.001Z,18.15
2023-03-17T12:42:16.495Z,18.03
2023-03-17T12:44:42.855Z,16.05
2023-03-17T12:47:09.285Z,14.91
2023-03-17T12:49:35.704Z,15.32
2023-03-17T12:52:02.083Z,15.29
2023-03-17T12:54:28.533Z,15.44
2023-03-17T12:56:54.985Z,15.54
2023-03-17T12:59:21.347Z,15.76
2023-03-17T13:01:47.817Z,15.98
2023-03-17T13:04:14.336Z,15.88
2023-03-17T13:06:40.730Z,16.32
2023-03-17T13:09:07.146Z,16.39
2023-03-17T13:11:33.608Z,16.40
2023-03-17T13:14:00.031Z,16.71
2023-03-17T13:16:26.798Z,16.67
2023-03-17T13:18:53.275Z,16.81
2023-03-17T13:21:19.649Z,17.04
2023-03-17T13:23:46.062Z,17.23
2023-03-17T13:26:12.442Z,17.21
2023-03-17T13:28:38.860Z,17.39
2023-03-17T13:31:05.462Z,17.38
2023-03-17T13:33:32.056Z,17.68
2023-03-17T13:35:58.606Z,17.65
2023-03-17T13:38:25.117Z,17.53
2023-03-17T13:40:51.518Z,17.49
2023-03-17T13:43:17.926Z,17.74
2023-03-17T13:45:44.390Z,15.72
2023-03-17T13:48:10.816Z,15.77
2023-03-17T13:50:37.239Z,15.58
2023-03-17T13:53:03.674Z,15.77
2023-03-17T13:55:30.466Z,15.74
2023-03-17T13:57:57.141Z,15.68
2023-03-17T14:00:23.647Z,15.80
2023-03-17T14:02:50.121Z,15.91
2023-03-17T14:05:16.494Z,16.09
2023-03-17T14:07:42.903Z,15.94
2023-03-17T14:10:10.742Z,16.18
2023-03-17T14:12:37.149Z,16.12
2023-03-17T14:15:03.535Z,17.01
2023-03-17T14:17:29.987Z,17.06
2023-03-17T14:19:56.390Z,17.13
2023-03-17T14:22:22.783Z,17.46
2023-03-17T14:24:49.159Z,17.58
2023-03-17T14:27:15.484Z,17.99
2023-03-17T14:29:41.866Z,17.98
2023-03-17T14:32:08.329Z,17.98
2023-03-17T14:34:34.687Z,18.03
2023-03-17T14:37:01.051Z,18.12
2023-03-17T14:39:27.364Z,18.08
2023-03-17T14:41:53.681Z,18.33
2023-03-17T14:44:20.240Z,18.15
2023-03-17T14:46:46.604Z,18.27
2023-03-17T14:49:12.977Z,18.31
2023-03-17T14:51:39.404Z,18.16
2023-03-17T14:54:05.732Z,18.34
2023-03-17T14:56:32.054Z,18.26
2023-03-17T14:58:58.414Z,18.54
2023-03-17T15:01:26.421Z,18.56
2023-03-17T15:03:53.857Z,18.57
2023-03-17T15:06:20.427Z,18.61
2023-03-17T15:08:46.777Z,18.54
2023-03-17T15:11:13.084Z,18.70
2023-03-17T15:13:39.449Z,18.27
2023-03-17T15:16:05.775Z,18.35
2023-03-17T15:18:32.095Z,18.35
2023-03-17T15:20:58.483Z,18.38
2023-03-17T15:23:24.810Z,18.44
2023-03-17T15:25:51.197Z,18.64
2023-03-17T15:28:17.616Z,18.89
2023-03-17T15:30:47.489Z,18.69
2023-03-17T15:33:14.362Z,18.70
2023-03-17T15:35:40.734Z,18.67
2023-03-17T15:38:07.158Z,18.84
2023-03-17T15:40:33.812Z,18.98
2023-03-17T15:43:00.221Z,18.86
2023-03-17T15:45:26.607Z,18.80
2023-03-17T15:47:52.967Z,18.95
2023-03-17T15:50:19.294Z,18.90
2023-03-17T15:52:45.694Z,18.99
2023-03-17T15:55:12.031Z,19.19
2023-03-17T15:57:38.398Z,19.31
2023-03-17T16:00:04.773Z,19.13
2023-03-17T16:02:38.647Z,19.23
2023-03-17T16:05:04.993Z,19.00
2023-03-17T16:07:31.300Z,19.25
2023-03-17T16:09:57.663Z,19.32
2023-03-17T16:12:23.989Z,19.28
2023-03-17T16:14:50.347Z,19.34
2023-03-17T16:17:16.731Z,19.36
2023-03-17T16:19:43.051Z,19.42
2023-03-17T16:22:09.363Z,19.38
2023-03-17T16:24:35.730Z,19.52
2023-03-17T16:27:02.095Z,19.52
2023-03-17T16:29:28.461Z,19.44
2023-03-17T16:31:54.837Z,19.54
2023-03-17T16:34:21.153Z,19.74
2023-03-17T16:36:47.475Z,19.66
2023-03-17T16:39:13.858Z,19.55
2023-03-17T16:41:40.206Z,19.86
2023-03-17T16:44:06.519Z,20.00
2023-03-17T16:46:34.859Z,19.95
2023-03-17T16:49:02.058Z,20.11
2023-03-17T16:51:28.539Z,20.13
2023-03-17T16:53:54.873Z,20.10
2023-03-17T16:56:21.236Z,20.22
2023-03-17T16:58:47.623Z,20.31
2023-03-17T17:01:14.056Z,20.14
2023-03-17T17:03:40.371Z,20.37
2023-03-17T17:06:06.694Z,20.44
2023-03-17T17:08:33.067Z,20.42
2023-03-17T17:10:59.369Z,20.33
2023-03-17T17:13:25.700Z,20.55
2023-03-17T17:15:52.106Z,20.37
2023-03-17T17:18:18.506Z,20.47
2023-03-17T17:20:44.911Z,20.72
2023-03-17T17:23:11.286Z,20.59
2023-03-17T17:25:37.624Z,20.75
2023-03-17T17:28:03.945Z,20.63
2023-03-17T17:30:30.570Z,20.75
2023-03-17T17:32:57.211Z,20.84
2023-03-17T17:35:23.592Z,20.88
2023-03-17T17:37:49.994Z,21.01
2023-03-17T17:40:16.315Z,20.94
2023-03-17T17:42:42.635Z,21.04
2023-03-17T17:45:09.009Z,21.02
2023-03-17T17:47:35.327Z,21.08
2023-03-17T17:50:01.644Z,20.84
2023-03-17T17:52:28.047Z,21.24
2023-03-17T17:54:54.440Z,21.22
2023-03-17T17:57:20.755Z,21.24
2023-03-17T17:59:47.108Z,21.33
2023-03-17T18:02:13.617Z,21.29
2023-03-17T18:04:40.000Z,21.28
2023-03-17T18:07:06.380Z,21.21
2023-03-17T18:09:32.769Z,21.35
2023-03-17T18:11:59.082Z,21.40
2023-03-17T18:14:25.466Z,21.44
2023-03-17T18:16:51.805Z,21.30
2023-03-17T18:19:18.150Z,21.44
2023-03-17T18:21:44.543Z,21.70
2023-03-17T18:24:10.910Z,21.72
2023-03-17T18:26:37.261Z,21.68
2023-03-17T18:29:03.655Z,21.77
2023-03-17T18:31:30.012Z,21.77
2023-03-17T18:33:56.341Z,21.93
2023-03-17T18:36:22.694Z,21.64
2023-03-17T18:38:49.019Z,21.83
2023-03-17T18:41:15.343Z,21.95
2023-03-17T18:43:41.707Z,21.78
2023-03-17T18:46:08.068Z,22.01
2023-03-17T18:48:34.465Z,21.84
2023-03-17T18:51:00.838Z,22.09
2023-03-17T18:53:27.160Z,22.05
2023-03-17T18:55:53.569Z,22.10
2023-03-17T18:58:19.929Z,22.32
2023-03-17T19:00:46.464Z,22.28
2023-03-17T19:03:12.922Z,22.48
2023-03-17T19:05:39.325Z,22.39
2023-03-17T19:08:05.772Z,22.47
2023-03-17T19:10:32.239Z,22.31
2023-03-17T19:12:58.735Z,22.77
2023-03-17T19:15:25.062Z,22.46
2023-03-17T19:17:51.397Z,22.52
2023-03-17T19:20:17.770Z,22.97
2023-03-17T19:22:44.076Z,23.00
2023-03-17T19:25:10.405Z,22.69
2023-03-17T19:27:36.777Z,22.91
2023-03-17T19:30:03.089Z,22.88
2023-03-17T19:32:29.452Z,23.09
2023-03-17T19:34:55.857Z,23.03
2023-03-17T19:37:22.172Z,23.15
2023-03-17T19:39:48.517Z,23.18
2023-03-17T19:42:14.883Z,23.25
2023-03-17T19:44:41.220Z,23.34
2023-03-17T19:47:07.542Z,23.49
2023-03-17T19:49:33.930Z,23.65
2023-03-17T19:52:00.245Z,23.80
2023-03-17T19:54:26.546Z,23.88
2023-03-17T19:56:52.929Z,23.71
2023-03-17T19:59:19.243Z,23.80
2023-03-17T20:01:45.580Z,23.87
2023-03-17T20:04:12.013Z,24.07
2023-03-17T20:06:38.364Z,23.94
2023-03-17T20:09:04.696Z,24.12
2023-03-17T20:11:31.072Z,24.22
2023-03-17T20:13:57.384Z,24.01
2023-03-17T20:16:23.724Z,23.91
2023-03-17T20:18:50.097Z,24.30
2023-03-17T20:21:16.417Z,24.40
2023-03-17T20:23:42.723Z,24.24
2023-03-17T20:26:09.120Z,24.45
2023-03-17T20:28:35.441Z,24.46
2023-03-17T20:31:01.793Z,24.18
2023-03-17T20:33:28.195Z,24.53
2023-03-17T20:35:54.558Z,24.52
2023-03-17T20:38:20.926Z,24.70
2023-03-17T20:40:47.340Z,24.42
2023-03-17T20:43:13.676Z,24.77
2023-03-17T20:45:40.056Z,24.64
2023-03-17T20:48:06.497Z,24.83
2023-03-17T20:50:33.215Z,24.54
2023-03-17T20:52:59.804Z,24.64
2023-03-17T20:55:26.274Z,24.72
2023-03-17T20:57:52.600Z,24.79
2023-03-17T21:00:18.920Z,24.81
2023-03-17T21:02:45.357Z,24.99
2023-03-17T21:05:11.776Z,25.09
2023-03-17T21:07:38.074Z,25.03
2023-03-17T21:10:04.546Z,25.06
2023-03-17T21:12:30.936Z,25.18
2023-03-17T21:14:57.233Z,25.48
2023-03-17T21:17:23.635Z,25.20
2023-03-17T21:19:49.962Z,25.30
2023-03-17T21:22:16.275Z,25.29
2023-03-17T21:24:42.722Z,25.43
2023-03-17T21:27:09.042Z,25.54
2023-03-17T21:29:35.361Z,25.62
2023-03-17T21:32:01.904Z,25.45
2023-03-17T21:34:28.200Z,25.54
2023-03-17T21:36:54.519Z,25.65
2023-03-17T21:39:20.938Z,25.63
2023-03-17T21:41:47.256Z,26.01
2023-03-17T21:44:13.593Z,25.95
2023-03-17T21:46:40.008Z,26.03
2023-03-17T21:49:06.336Z,26.07
2023-03-17T21:51:32.632Z,26.04
2023-03-17T21:53:59.110Z,26.30
2023-03-17T21:56:25.407Z,26.17
2023-03-17T21:58:51.741Z,26.16
2023-03-17T22:01:18.142Z,26.29
2023-03-17T22:03:44.502Z,26.47
2023-03-17T22:06:10.878Z,26.42
2023-03-17T22:08:37.290Z,26.51
2023-03-17T22:11:03.720Z,26.54
2023-03-17T22:13:30.017Z,26.53
2023-03-17T22:15:56.364Z,26.62
2023-03-17T22:18:22.750Z,26.63
2023-03-17T22:20:49.055Z,26.93
2023-03-17T22:23:15.426Z,26.93
2023-03-17T22:25:41.760Z,26.96
2023-03-17T22:28:08.120Z,26.78
2023-03-17T22:30:34.672Z,27.06
2023-03-17T22:33:01.028Z,27.27
2023-03-17T22:35:27.374Z,27.09
2023-03-17T22:37:53.754Z,27.33
2023-03-17T22:40:20.057Z,27.36
2023-03-17T22:42:46.364Z,27.41
2023-03-17T22:45:13.241Z,27.22
2023-03-17T22:47:39.614Z,27.24
2023-03-17T22:50:05.927Z,27.59
2023-03-17T22:52:32.286Z,27.49
2023-03-17T22:54:58.610Z,27.47
2023-03-17T22:57:25.055Z,27.43
2023-03-17T22:59:51.495Z,27.78
2023-03-17T23:02:18.651Z,27.51
2023-03-17T23:04:45.041Z,27.63
2023-03-17T23:07:11.411Z,27.64
2023-03-17T23:09:37.750Z,27.83
2023-03-17T23:12:04.083Z,27.77
2023-03-17T23:14:30.460Z,27.88
2023-03-17T23:16:56.792Z,27.93
2023-03-17T23:19:23.141Z,27.84
2023-03-17T23:21:49.493Z,27.97
2023-03-17T23:24:15.834Z,28.15
2023-03-17T23:26:42.160Z,28.00
2023-03-17T23:29:08.545Z,28.24
2023-03-17T23:31:34.854Z,28.20
2023-03-17T23:34:01.173Z,28.12
2023-03-17T23:36:27.547Z,28.28
2023-03-17T23:38:53.870Z,28.31
2023-03-17T23:41:20.158Z,28.52
2023-03-17T23:43:46.537Z,28.16
2023-03-17T23:46:12.894Z,28.50
2023-03-17T23:48:41.536Z,28.52
2023-03-17T23:51:08.960Z,28.33
2023-03-17T23:53:35.274Z,28.36
2023-03-17T23:56:01.608Z,28.61
2023-03-17T23:58:27.990Z,28.73
